Time;durP1;ratioP1;P1;durP2;ratioP2;P2;SDS_P1;SDS_P2;PMS_P1;PMS_P2;Temp;Humidity;BMP_temperature;BMP_pressure;BME280_temperature;BME280_humidity;BME280_pressure;Samples;Min_cycle;Max_cycle;Signal;HPM_P1;HPM_P2
2023/08/20 00:00:27;;;;;;;4.50;4.10;;;27.60;65.20;;;;;;5012158;28;21037;-73
2023/08/20 00:03:20;;;;;;;5.57;5.07;;;27.60;65.20;;;;;;5012434;28;20784;-72
2023/08/20 00:05:46;;;;;;;5.70;5.20;;;27.60;65.20;;;;;;5012378;28;20491;-72
2023/08/20 00:08:11;;;;;;;5.13;4.50;;;27.60;65.20;;;;;;5012228;28;20494;-72
2023/08/20 00:10:37;;;;;;;6.57;5.40;;;27.60;65.30;;;;;;5012218;28;20243;-72
2023/08/20 00:13:04;;;;;;;6.20;5.57;;;27.60;65.30;;;;;;4994842;28;20200;-72
2023/08/20 00:15:30;;;;;;;6.10;5.50;;;27.60;65.30;;;;;;4994584;28;20176;-72
2023/08/20 00:17:55;;;;;;;5.70;5.20;;;27.60;65.30;;;;;;5012097;28;20462;-72
2023/08/20 00:20:22;;;;;;;5.10;4.60;;;27.60;65.30;;;;;;5012069;28;20439;-71
2023/08/20 00:22:48;;;;;;;5.67;5.17;;;27.60;65.30;;;;;;5012108;28;20692;-73
2023/08/20 00:25:15;;;;;;;5.63;5.17;;;27.60;65.30;;;;;;5012137;28;20776;-72
2023/08/20 00:27:41;;;;;;;5.40;5.00;;;27.60;65.30;;;;;;5012143;28;20411;-72
2023/08/20 00:30:08;;;;;;;5.20;4.80;;;27.60;65.30;;;;;;4994393;28;20462;-72
2023/08/20 00:32:34;;;;;;;6.07;5.57;;;27.60;65.30;;;;;;5012086;28;20411;-71
2023/08/20 00:35:00;;;;;;;5.50;5.00;;;27.60;65.30;;;;;;5012043;28;20775;-72
2023/08/20 00:37:26;;;;;;;5.80;5.30;;;27.60;65.30;;;;;;4994388;28;20471;-72
2023/08/20 00:39:51;;;;;;;5.37;4.80;;;27.60;65.30;;;;;;5011870;28;20426;-72
2023/08/20 00:42:17;;;;;;;5.10;4.70;;;27.60;65.30;;;;;;5012071;28;20169;-72
2023/08/20 00:44:45;;;;;;;5.87;5.37;;;27.60;65.30;;;;;;4994450;28;20522;-72
2023/08/20 00:47:13;;;;;;;5.60;5.10;;;27.60;65.30;;;;;;5013615;28;20172;-72
2023/08/20 00:49:40;;;;;;;5.93;5.33;;;27.60;65.30;;;;;;5015855;28;20435;-72
2023/08/20 00:52:08;;;;;;;6.10;5.50;;;27.60;65.30;;;;;;5015796;28;20411;-72
2023/08/20 00:54:34;;;;;;;5.70;5.30;;;27.60;65.30;;;;;;5015815;28;20470;-72
2023/08/20 00:57:02;;;;;;;5.90;5.40;;;27.60;65.30;;;;;;5015691;28;20483;-73
2023/08/20 00:59:29;;;;;;;5.97;5.37;;;27.60;65.30;;;;;;5015955;28;20786;-72
2023/08/20 01:01:55;;;;;;;5.93;5.10;;;27.60;65.30;;;;;;5015629;28;20423;-72
2023/08/20 01:04:21;;;;;;;6.30;5.70;;;27.60;65.30;;;;;;5015574;28;20503;-73
2023/08/20 01:06:59;;;;;;;6.30;5.70;;;27.60;65.30;;;;;;5015560;28;20564;-72
2023/08/20 01:09:49;;;;;;;6.67;5.57;;;27.60;65.40;;;;;;5015210;28;20272;-73
2023/08/20 01:12:16;;;;;;;5.07;4.67;;;27.60;65.30;;;;;;5015493;28;20400;-72
2023/08/20 01:14:42;;;;;;;5.57;5.07;;;27.60;65.40;;;;;;4997789;28;20407;-73
2023/08/20 01:17:11;;;;;;;5.57;5.17;;;27.60;65.40;;;;;;5015281;28;20819;-72
2023/08/20 01:19:38;;;;;;;6.40;5.70;;;27.60;65.30;;;;;;5015320;28;20195;-73
2023/08/20 01:22:54;;;;;;;5.27;4.87;;;27.60;65.30;;;;;;5015269;28;20407;-72
2023/08/20 01:25:25;;;;;;;6.40;5.30;;;27.60;65.30;;;;;;5015484;28;20457;-72
2023/08/20 01:28:03;;;;;;;5.47;5.07;;;27.60;65.40;;;;;;5015484;28;20415;-72
2023/08/20 01:30:30;;;;;;;5.13;4.50;;;27.60;65.40;;;;;;5015066;28;20423;-72
2023/08/20 01:32:58;;;;;;;5.70;5.10;;;27.60;65.40;;;;;;5015123;28;20411;-72
2023/08/20 01:35:26;;;;;;;5.43;5.03;;;27.60;65.40;;;;;;5015314;28;20407;-73
2023/08/20 01:37:51;;;;;;;5.53;5.13;;;27.60;65.40;;;;;;5014991;28;20455;-72
2023/08/20 01:40:17;;;;;;;5.23;4.73;;;27.60;65.40;;;;;;5014966;28;20457;-72
2023/08/20 01:42:43;;;;;;;5.20;4.40;;;27.60;65.40;;;;;;4997626;28;20271;-72
2023/08/20 01:45:09;;;;;;;5.20;4.80;;;27.60;65.40;;;;;;4997277;28;20176;-72
2023/08/20 01:47:34;;;;;;;6.37;4.90;;;27.60;65.30;;;;;;4997206;28;20191;-72
2023/08/20 01:50:00;;;;;;;5.60;5.10;;;27.60;65.30;;;;;;5014717;28;20439;-72
2023/08/20 01:52:26;;;;;;;5.93;5.40;;;27.60;65.40;;;;;;5014675;28;20227;-72
2023/08/20 01:54:53;;;;;;;5.07;4.67;;;27.60;65.40;;;;;;5014700;28;20203;-73
2023/08/20 01:57:19;;;;;;;5.03;4.53;;;27.60;65.30;;;;;;5014837;28;20215;-72
2023/08/20 01:59:44;;;;;;;5.33;4.93;;;27.60;65.30;;;;;;5013347;28;20796;-73
2023/08/20 02:02:10;;;;;;;4.97;4.47;;;27.60;65.30;;;;;;5014554;28;20606;-72
2023/08/20 02:04:36;;;;;;;5.03;4.60;;;27.60;65.30;;;;;;5014513;28;20668;-72
2023/08/20 02:07:01;;;;;;;5.97;4.90;;;27.60;65.30;;;;;;5014507;28;20185;-72
2023/08/20 02:09:27;;;;;;;6.00;5.50;;;27.60;65.30;;;;;;5014413;28;20678;-72
2023/08/20 02:11:53;;;;;;;4.90;4.50;;;27.60;65.30;;;;;;5014386;28;20209;-72
2023/08/20 02:14:18;;;;;;;5.40;4.30;;;27.60;65.30;;;;;;5014309;28;20207;-72
2023/08/20 02:16:45;;;;;;;5.77;4.70;;;27.60;65.30;;;;;;5014306;28;20204;-73
2023/08/20 02:19:11;;;;;;;5.07;4.63;;;27.60;65.30;;;;;;5014307;28;20172;-73
2023/08/20 02:21:37;;;;;;;4.77;4.47;;;27.60;65.30;;;;;;5014202;28;20454;-72
2023/08/20 02:24:03;;;;;;;4.97;4.57;;;27.60;65.30;;;;;;5014215;28;20653;-72
2023/08/20 02:26:28;;;;;;;4.80;4.07;;;27.60;65.30;;;;;;5014153;28;20450;-72
2023/08/20 02:28:54;;;;;;;5.00;4.50;;;27.60;65.30;;;;;;5014048;28;20255;-72
2023/08/20 02:31:19;;;;;;;5.23;4.83;;;27.60;65.30;;;;;;5013913;28;20203;-72
2023/08/20 02:33:45;;;;;;;5.37;4.70;;;27.60;65.30;;;;;;4996352;28;20187;-73
2023/08/20 02:36:11;;;;;;;4.80;4.40;;;27.60;65.30;;;;;;4996243;28;20294;-72
2023/08/20 02:38:36;;;;;;;5.43;4.93;;;27.60;65.30;;;;;;4996351;28;20184;-73
2023/08/20 02:41:05;;;;;;;5.13;4.70;;;27.60;65.30;;;;;;5013686;28;20200;-73
2023/08/20 02:43:30;;;;;;;5.20;4.80;;;27.60;65.30;;;;;;5013785;28;20175;-73
2023/08/20 02:45:56;;;;;;;5.07;4.53;;;27.60;65.30;;;;;;4996138;28;20470;-72
2023/08/20 02:48:26;;;;;;;4.40;4.00;;;27.60;65.30;;;;;;5013704;28;20235;-72
2023/08/20 02:50:55;;;;;;;5.47;5.00;;;27.60;65.30;;;;;;5013649;28;20187;-72
2023/08/20 02:53:22;;;;;;;5.10;4.70;;;27.60;65.30;;;;;;5013557;28;20417;-72
2023/08/20 02:55:47;;;;;;;4.67;4.27;;;27.60;65.30;;;;;;5013463;28;20414;-72
2023/08/20 02:58:13;;;;;;;5.17;4.50;;;27.60;65.30;;;;;;4996141;28;20415;-72
2023/08/20 03:00:38;;;;;;;4.70;4.30;;;27.60;65.30;;;;;;5013386;28;20610;-72
2023/08/20 03:03:08;;;;;;;5.20;4.80;;;27.60;65.30;;;;;;5013435;28;20556;-73
2023/08/20 03:05:34;;;;;;;5.13;4.70;;;27.60;65.30;;;;;;5013482;28;20175;-72
2023/08/20 03:08:00;;;;;;;5.20;4.70;;;27.60;65.30;;;;;;5013312;28;20474;-72
2023/08/20 03:10:27;;;;;;;5.30;4.03;;;27.60;65.30;;;;;;5012877;28;20440;-72
2023/08/20 03:12:53;;;;;;;4.90;4.50;;;27.60;65.30;;;;;;4995673;28;20423;-73
2023/08/20 03:15:19;;;;;;;5.30;4.77;;;27.60;65.30;;;;;;5013187;28;20450;-72
2023/08/20 03:17:44;;;;;;;4.43;4.10;;;27.60;65.30;;;;;;5013152;28;20199;-72
2023/08/20 03:20:10;;;;;;;4.90;4.40;;;27.60;65.30;;;;;;4995407;28;20200;-73
2023/08/20 03:22:37;;;;;;;4.73;4.30;;;27.60;65.30;;;;;;5013033;28;20176;-72
2023/08/20 03:25:03;;;;;;;4.97;4.57;;;27.60;65.30;;;;;;4995342;28;20411;-73
2023/08/20 03:27:28;;;;;;;5.20;4.80;;;27.60;65.30;;;;;;5012915;28;20795;-72
2023/08/20 03:29:54;;;;;;;5.37;4.90;;;27.60;65.30;;;;;;4994018;28;20452;-72
2023/08/20 03:32:20;;;;;;;4.53;4.10;;;27.60;65.30;;;;;;5011228;28;20183;-73
2023/08/20 03:34:45;;;;;;;4.37;4.07;;;27.60;65.30;;;;;;5011110;28;20178;-72
2023/08/20 03:37:12;;;;;;;4.53;4.13;;;27.60;65.30;;;;;;5012558;28;20254;-73
2023/08/20 03:39:38;;;;;;;4.03;3.73;;;27.60;66.20;;;;;;5012908;28;20185;-72
2023/08/20 03:42:03;;;;;;;4.87;4.30;;;27.60;65.30;;;;;;5012414;28;20442;-72
2023/08/20 03:44:30;;;;;;;4.47;4.07;;;27.60;65.30;;;;;;5012594;28;20649;-72
2023/08/20 03:46:56;;;;;;;7.63;4.63;;;27.60;65.30;;;;;;5012190;28;20180;-72
2023/08/20 03:49:22;;;;;;;4.37;4.07;;;27.60;65.30;;;;;;5012306;28;20838;-73
2023/08/20 03:51:47;;;;;;;5.43;4.93;;;27.60;65.30;;;;;;5012540;28;20192;-73
2023/08/20 03:54:13;;;;;;;5.27;4.87;;;27.60;65.30;;;;;;4994828;28;20180;-73
2023/08/20 03:56:39;;;;;;;4.70;4.30;;;27.60;65.30;;;;;;5012397;28;20575;-72
2023/08/20 03:59:05;;;;;;;5.00;4.50;;;27.60;65.30;;;;;;5012387;28;20412;-73
2023/08/20 04:01:31;;;;;;;5.03;4.53;;;27.60;65.30;;;;;;4994817;28;20196;-72
2023/08/20 04:03:56;;;;;;;4.90;4.47;;;27.60;65.30;;;;;;5012409;28;20199;-72
2023/08/20 04:06:25;;;;;;;4.30;4.00;;;27.60;65.30;;;;;;5012469;28;20910;-72
2023/08/20 04:08:51;;;;;;;4.77;4.37;;;27.60;65.30;;;;;;5012422;28;20204;-71
2023/08/20 04:11:19;;;;;;;5.40;4.90;;;27.60;65.30;;;;;;4994679;28;20485;-72
2023/08/20 04:13:45;;;;;;;4.40;4.10;;;27.60;65.30;;;;;;5012331;28;20225;-72
2023/08/20 04:16:11;;;;;;;4.43;4.00;;;27.60;65.30;;;;;;5012341;28;20487;-73
2023/08/20 04:18:36;;;;;;;4.77;4.37;;;27.60;65.30;;;;;;5012272;28;20591;-72
2023/08/20 04:21:02;;;;;;;5.10;4.70;;;27.60;65.30;;;;;;4994316;28;20287;-72
2023/08/20 04:23:28;;;;;;;4.60;4.20;;;27.60;65.30;;;;;;5012370;28;20172;-72
2023/08/20 04:25:53;;;;;;;5.57;5.07;;;27.60;65.30;;;;;;5012301;28;20642;-74
2023/08/20 04:28:19;;;;;;;5.17;4.77;;;27.60;65.30;;;;;;4994476;28;20267;-74
2023/08/20 04:30:44;;;;;;;4.60;4.20;;;27.60;65.30;;;;;;5012101;28;20192;-73
2023/08/20 04:33:10;;;;;;;5.20;4.70;;;27.60;65.30;;;;;;5012203;28;20168;-73
2023/08/20 04:35:36;;;;;;;4.40;4.00;;;27.60;65.30;;;;;;5012122;28;20176;-74
2023/08/20 04:38:02;;;;;;;5.17;4.77;;;27.60;65.30;;;;;;5012065;28;20235;-73
2023/08/20 04:40:28;;;;;;;4.40;4.07;;;27.60;65.30;;;;;;5011960;28;20563;-72
2023/08/20 04:42:53;;;;;;;4.90;4.50;;;27.60;65.30;;;;;;5012427;28;20404;-72
2023/08/20 04:45:19;;;;;;;4.53;4.23;;;27.60;65.30;;;;;;5012059;28;20206;-73
2023/08/20 04:47:46;;;;;;;4.50;4.10;;;27.60;65.30;;;;;;5012219;28;20180;-73
2023/08/20 04:50:13;;;;;;;5.67;5.20;;;27.60;65.30;;;;;;4994331;28;20628;-73
2023/08/20 04:52:39;;;;;;;4.50;4.10;;;27.60;65.30;;;;;;5011930;28;20414;-73
2023/08/20 04:55:06;;;;;;;4.73;4.33;;;27.60;65.30;;;;;;5011885;28;20939;-73
2023/08/20 04:57:32;;;;;;;5.27;4.77;;;27.60;65.30;;;;;;5012127;28;20459;-73
2023/08/20 04:59:58;;;;;;;4.57;4.17;;;27.60;65.30;;;;;;5011889;28;20437;-73
2023/08/20 05:02:23;;;;;;;5.20;4.70;;;27.60;65.30;;;;;;5011970;28;20172;-73
2023/08/20 05:04:49;;;;;;;5.33;4.83;;;27.60;65.30;;;;;;5011888;28;20656;-73
2023/08/20 05:07:15;;;;;;;5.00;4.60;;;27.60;65.30;;;;;;4994216;28;20645;-73
2023/08/20 05:09:40;;;;;;;5.07;4.67;;;27.60;65.30;;;;;;4994140;28;20427;-72
2023/08/20 05:12:07;;;;;;;5.80;5.20;;;27.60;65.30;;;;;;5011752;28;20271;-73
2023/08/20 05:14:32;;;;;;;5.10;4.60;;;27.60;65.30;;;;;;5011865;28;20204;-73
2023/08/20 05:16:58;;;;;;;4.53;4.20;;;27.60;65.30;;;;;;5011993;28;20502;-73
2023/08/20 05:19:23;;;;;;;5.40;4.90;;;27.60;65.30;;;;;;5011776;28;20506;-73
2023/08/20 05:21:49;;;;;;;4.83;4.47;;;27.60;65.30;;;;;;4994050;28;20282;-73
2023/08/20 05:24:14;;;;;;;5.00;4.60;;;27.60;65.30;;;;;;5011739;28;20173;-73
2023/08/20 05:26:40;;;;;;;4.70;4.30;;;27.60;65.30;;;;;;5011685;28;20212;-72
2023/08/20 05:29:06;;;;;;;4.70;4.20;;;27.60;65.20;;;;;;5011985;28;20176;-73
2023/08/20 05:31:31;;;;;;;4.97;4.57;;;27.60;65.20;;;;;;5011805;28;20322;-73
2023/08/20 05:33:57;;;;;;;4.97;4.50;;;27.60;65.30;;;;;;5014215;28;20535;-73
2023/08/20 05:36:23;;;;;;;4.43;4.10;;;27.60;65.20;;;;;;5015003;28;20195;-73
2023/08/20 05:38:49;;;;;;;5.07;4.67;;;27.60;65.20;;;;;;5014992;28;20185;-73
2023/08/20 05:41:14;;;;;;;5.40;4.90;;;27.60;65.20;;;;;;5014805;28;20542;-73
2023/08/20 05:43:40;;;;;;;5.10;4.70;;;27.70;65.30;;;;;;5015008;28;20171;-73
2023/08/20 05:46:06;;;;;;;4.97;4.57;;;27.60;65.20;;;;;;5014916;28;20183;-73
2023/08/20 05:48:31;;;;;;;4.40;4.10;;;27.60;65.20;;;;;;5014836;28;20189;-73
2023/08/20 05:50:57;;;;;;;4.93;4.53;;;27.60;65.20;;;;;;5014683;28;20254;-73
2023/08/20 05:53:23;;;;;;;5.30;4.90;;;27.70;65.30;;;;;;4997301;28;20173;-73
2023/08/20 05:55:49;;;;;;;5.80;5.07;;;27.70;65.30;;;;;;5014673;28;20637;-73
2023/08/20 05:58:14;;;;;;;6.03;5.53;;;27.60;65.20;;;;;;5014664;28;20172;-72
2023/08/20 06:00:40;;;;;;;6.47;5.30;;;27.70;66.10;;;;;;5014508;28;20441;-73
2023/08/20 06:03:07;;;;;;;4.80;4.40;;;27.70;65.30;;;;;;5014671;28;20183;-73
2023/08/20 06:05:33;;;;;;;4.60;4.30;;;27.70;65.30;;;;;;5014517;28;20174;-73
2023/08/20 06:07:59;;;;;;;4.70;4.30;;;27.70;65.30;;;;;;5014495;28;20450;-72
2023/08/20 06:10:25;;;;;;;6.70;5.10;;;27.70;65.30;;;;;;5014708;28;20518;-73
2023/08/20 06:12:50;;;;;;;6.13;5.57;;;27.70;65.30;;;;;;5014698;28;20180;-73
2023/08/20 06:15:16;;;;;;;5.70;5.20;;;27.70;65.30;;;;;;5014380;28;20238;-73
2023/08/20 06:17:41;;;;;;;6.90;4.77;;;27.70;65.30;;;;;;5014364;28;20192;-73
2023/08/20 06:20:08;;;;;;;5.80;5.37;;;27.70;65.30;;;;;;5014252;28;20188;-73
2023/08/20 06:22:34;;;;;;;5.60;5.07;;;27.70;65.30;;;;;;5014278;28;20166;-73
2023/08/20 06:25:00;;;;;;;4.97;4.57;;;27.70;65.30;;;;;;5014133;28;20419;-72
2023/08/20 06:27:25;;;;;;;5.17;4.67;;;27.70;65.30;;;;;;5014129;28;20411;-73
2023/08/20 06:29:51;;;;;;;6.43;5.87;;;27.70;65.20;;;;;;5014048;28;20177;-73
2023/08/20 06:32:17;;;;;;;5.57;5.17;;;27.70;65.20;;;;;;5014107;28;20183;-73
2023/08/20 06:34:42;;;;;;;5.50;5.00;;;27.70;65.30;;;;;;4996543;28;20266;-73
2023/08/20 06:37:08;;;;;;;5.53;5.13;;;27.70;65.20;;;;;;5013951;28;20281;-73
2023/08/20 06:39:33;;;;;;;5.10;4.70;;;27.70;65.20;;;;;;5013978;28;20173;-73
2023/08/20 06:41:59;;;;;;;6.17;5.67;;;27.70;65.30;;;;;;5013860;28;20239;-73
2023/08/20 06:44:24;;;;;;;6.00;5.50;;;27.70;65.20;;;;;;5013224;28;20165;-73
2023/08/20 06:46:50;;;;;;;5.80;5.30;;;27.70;65.20;;;;;;5013800;28;20203;-73
2023/08/20 06:49:16;;;;;;;5.17;4.77;;;27.70;65.20;;;;;;5013596;28;20180;-73
2023/08/20 06:51:41;;;;;;;5.20;4.80;;;27.70;65.30;;;;;;4995387;28;20563;-73
2023/08/20 06:54:07;;;;;;;5.73;5.23;;;27.70;65.30;;;;;;4996035;28;20183;-73
2023/08/20 06:56:33;;;;;;;8.03;6.00;;;27.70;65.20;;;;;;4995799;28;20232;-73
2023/08/20 06:58:59;;;;;;;5.33;4.93;;;27.70;65.20;;;;;;4995927;28;20485;-73
2023/08/20 07:01:26;;;;;;;5.50;5.00;;;27.70;65.20;;;;;;5013646;28;20232;-72
2023/08/20 07:03:52;;;;;;;5.80;5.27;;;27.70;65.30;;;;;;5013465;28;20930;-73
2023/08/20 07:06:18;;;;;;;6.00;5.40;;;27.70;65.30;;;;;;4995987;28;20184;-73
2023/08/20 07:08:44;;;;;;;6.00;5.47;;;27.70;65.20;;;;;;5013523;28;20180;-73
2023/08/20 07:11:10;;;;;;;6.33;5.43;;;27.70;65.20;;;;;;5013221;28;20435;-73
2023/08/20 07:13:36;;;;;;;5.30;4.90;;;27.70;65.20;;;;;;4995608;28;20423;-73
2023/08/20 07:16:02;;;;;;;5.87;5.23;;;27.70;65.20;;;;;;5013152;28;20841;-72
2023/08/20 07:18:28;;;;;;;5.37;4.97;;;27.70;65.20;;;;;;5013193;28;20442;-72
2023/08/20 07:20:55;;;;;;;6.07;5.57;;;27.70;65.20;;;;;;5013125;28;20589;-72
2023/08/20 07:23:21;;;;;;;5.07;4.57;;;27.80;65.30;;;;;;5013059;28;20446;-73
2023/08/20 07:25:46;;;;;;;5.40;4.90;;;27.80;65.20;;;;;;5013124;28;20871;-72
2023/08/20 07:28:12;;;;;;;4.67;4.27;;;27.80;65.20;;;;;;5012976;28;20226;-72
2023/08/20 07:30:38;;;;;;;5.17;4.77;;;27.80;65.20;;;;;;5012962;28;20685;-72
2023/08/20 07:33:05;;;;;;;5.37;4.97;;;27.80;65.20;;;;;;5012950;28;20172;-72
2023/08/20 07:35:31;;;;;;;5.17;4.77;;;27.80;65.20;;;;;;5013165;28;20199;-73
2023/08/20 07:37:56;;;;;;;5.70;5.20;;;27.80;65.20;;;;;;4995381;28;20462;-73
2023/08/20 07:40:22;;;;;;;5.33;4.93;;;27.80;65.20;;;;;;5012678;28;20211;-73
2023/08/20 07:42:47;;;;;;;5.80;5.30;;;27.80;65.20;;;;;;5012755;28;20627;-73
2023/08/20 07:45:13;;;;;;;5.53;4.50;;;27.80;65.20;;;;;;5012738;28;20176;-73
2023/08/20 07:47:39;;;;;;;5.80;5.40;;;27.80;65.10;;;;;;5012653;28;20176;-73
2023/08/20 07:50:08;;;;;;;5.23;4.83;;;27.80;65.20;;;;;;5012645;28;20208;-73
2023/08/20 07:52:36;;;;;;;5.27;4.77;;;27.80;65.10;;;;;;5012675;28;20411;-73
2023/08/20 07:55:02;;;;;;;5.50;5.10;;;27.80;65.20;;;;;;5012644;28;20415;-73
2023/08/20 07:57:27;;;;;;;4.80;4.40;;;27.80;65.10;;;;;;5011653;28;20462;-71
2023/08/20 07:59:58;;;;;;;5.03;4.63;;;27.80;65.10;;;;;;5012510;28;20646;-73
2023/08/20 08:02:24;;;;;;;4.90;4.50;;;27.80;65.10;;;;;;5012515;28;20161;-73
2023/08/20 08:04:49;;;;;;;5.83;5.33;;;27.80;65.20;;;;;;5012217;28;20422;-73
2023/08/20 08:07:18;;;;;;;4.93;4.53;;;27.80;65.10;;;;;;5012512;28;20186;-73
2023/08/20 08:12:12;;;;;;;4.80;4.43;;;27.80;65.00;;;;;;5049376;28;20994;-73
2023/08/20 08:14:37;;;;;;;6.30;5.80;;;27.80;65.10;;;;;;5052433;28;20421;-73
2023/08/20 08:17:04;;;;;;;4.93;4.53;;;27.80;65.10;;;;;;5034115;28;20280;-73
2023/08/20 08:19:29;;;;;;;6.23;5.70;;;27.80;65.00;;;;;;5034085;28;20231;-73
2023/08/20 08:21:55;;;;;;;5.40;4.90;;;27.80;65.00;;;;;;5051933;28;20893;-73
2023/08/20 08:24:20;;;;;;;5.40;5.00;;;27.80;64.90;;;;;;5034211;28;20190;-73
2023/08/20 08:26:46;;;;;;;5.50;5.00;;;27.80;64.90;;;;;;5050537;28;20179;-73
2023/08/20 08:29:12;;;;;;;4.90;4.40;;;27.80;64.90;;;;;;5051848;28;20320;-73
2023/08/20 08:31:37;;;;;;;5.30;4.90;;;27.80;64.90;;;;;;5051857;28;20183;-72
2023/08/20 08:34:03;;;;;;;5.33;4.83;;;27.80;64.90;;;;;;5052127;28;20660;-72
2023/08/20 08:36:29;;;;;;;5.53;5.13;;;27.80;64.90;;;;;;5051935;28;20226;-73
2023/08/20 08:38:55;;;;;;;5.10;4.70;;;27.80;64.90;;;;;;5052065;28;20171;-73
2023/08/20 08:41:25;;;;;;;5.07;4.67;;;27.90;65.00;;;;;;5052073;28;20615;-72
2023/08/20 08:43:51;;;;;;;5.27;4.80;;;27.80;64.90;;;;;;5051684;28;20195;-72
2023/08/20 08:46:17;;;;;;;5.40;5.00;;;27.80;64.90;;;;;;5051668;28;20497;-73
2023/08/20 08:48:45;;;;;;;5.57;5.07;;;27.80;64.90;;;;;;5050482;28;20219;-72
2023/08/20 08:51:12;;;;;;;5.77;5.27;;;27.80;64.90;;;;;;5051672;28;20492;-72
2023/08/20 08:53:38;;;;;;;5.83;5.33;;;27.80;64.90;;;;;;5051596;28;20416;-73
2023/08/20 08:56:05;;;;;;;5.50;5.00;;;27.90;65.00;;;;;;5051467;28;20410;-72
2023/08/20 08:58:32;;;;;;;5.90;5.30;;;27.90;65.00;;;;;;5051720;28;20471;-73
2023/08/20 09:00:58;;;;;;;5.90;5.50;;;27.90;65.00;;;;;;5017461;28;20453;-72
2023/08/20 09:03:24;;;;;;;5.20;4.80;;;27.90;64.90;;;;;;5051996;28;20770;-73
2023/08/20 09:06:02;;;;;;;5.17;4.77;;;27.90;64.90;;;;;;5052051;28;20259;-73
2023/08/20 09:08:30;;;;;;;5.30;4.90;;;27.90;65.00;;;;;;5053903;28;20786;-73
2023/08/20 09:10:58;;;;;;;5.30;4.90;;;27.90;65.00;;;;;;5055392;28;20477;-74
2023/08/20 09:13:33;;;;;;;5.60;5.20;;;27.90;65.00;;;;;;5054543;28;20433;-73
2023/08/20 09:15:59;;;;;;;6.27;5.77;;;27.90;65.80;;;;;;5055454;28;20421;-73
2023/08/20 09:18:24;;;;;;;6.13;5.63;;;27.90;65.00;;;;;;5037548;28;20456;-74
2023/08/20 09:20:50;;;;;;;6.77;6.27;;;27.90;64.90;;;;;;5055564;28;20195;-73
2023/08/20 09:23:16;;;;;;;6.20;5.70;;;27.90;64.90;;;;;;5055535;28;20656;-73
2023/08/20 09:25:43;;;;;;;6.60;6.10;;;27.90;64.90;;;;;;5037590;28;20421;-73
2023/08/20 09:28:09;;;;;;;7.40;6.80;;;27.90;64.90;;;;;;5055439;28;20482;-73
2023/08/20 09:30:35;;;;;;;7.00;6.30;;;27.90;64.90;;;;;;5055185;28;20440;-73
2023/08/20 09:33:11;;;;;;;7.70;7.13;;;27.90;64.90;;;;;;5055159;28;20409;-73
2023/08/20 09:35:36;;;;;;;7.20;6.60;;;27.90;64.90;;;;;;5055219;28;20538;-73
2023/08/20 09:38:05;;;;;;;7.10;6.43;;;27.90;64.90;;;;;;5054951;28;20457;-73
2023/08/20 09:40:31;;;;;;;7.53;6.83;;;27.90;64.90;;;;;;5048571;28;20293;-72
2023/08/20 09:42:57;;;;;;;7.40;6.70;;;27.90;64.90;;;;;;5045729;28;20441;-74
2023/08/20 09:45:28;;;;;;;7.43;6.73;;;27.90;64.90;;;;;;5049074;28;20175;-73
2023/08/20 09:47:59;;;;;;;7.37;6.77;;;27.90;65.00;;;;;;5043220;28;20406;-72
2023/08/20 09:50:30;;;;;;;7.20;6.50;;;27.90;65.00;;;;;;5045020;28;20430;-73
2023/08/20 09:53:06;;;;;;;8.60;7.87;;;27.90;65.00;;;;;;5036792;28;20414;-73
2023/08/20 09:55:38;;;;;;;8.17;7.57;;;27.90;65.00;;;;;;5041706;28;20414;-72
2023/08/20 09:58:05;;;;;;;8.10;7.40;;;27.90;64.90;;;;;;5040350;28;20437;-72
2023/08/20 10:00:32;;;;;;;8.43;7.73;;;27.90;64.90;;;;;;5045218;28;20443;-72
2023/08/20 10:02:58;;;;;;;8.00;7.37;;;27.90;65.00;;;;;;5047616;28;20948;-73
2023/08/20 10:05:24;;;;;;;8.20;7.50;;;27.90;65.00;;;;;;5049161;28;20426;-72
2023/08/20 10:07:51;;;;;;;8.60;7.80;;;27.90;65.00;;;;;;5034299;28;20430;-72
2023/08/20 10:10:16;;;;;;;9.50;8.70;;;27.90;65.00;;;;;;5039228;28;20879;-73
2023/08/20 10:12:44;;;;;;;12.27;11.00;;;27.90;65.00;;;;;;5023923;28;20514;-73
2023/08/20 10:15:12;;;;;;;14.27;10.40;;;27.90;65.10;;;;;;5046401;28;20240;-70
2023/08/20 10:17:39;;;;;;;11.90;10.10;;;27.90;65.20;;;;;;5033703;28;20977;-72
2023/08/20 10:20:06;;;;;;;14.40;10.43;;;27.90;65.20;;;;;;5044742;28;20946;-73
2023/08/20 10:22:40;;;;;;;12.70;11.07;;;28.00;65.30;;;;;;5051320;28;21999;-73
2023/08/20 10:25:26;;;;;;;14.80;10.50;;;28.00;65.30;;;;;;5013820;28;20567;-72
2023/08/20 10:27:53;;;;;;;12.20;10.83;;;28.00;65.30;;;;;;5041175;28;20985;-71
2023/08/20 10:30:25;;;;;;;12.80;11.00;;;28.00;65.30;;;;;;5042468;28;20434;-72
2023/08/20 10:33:03;;;;;;;11.43;10.30;;;27.90;65.30;;;;;;5046137;28;20468;-72
2023/08/20 10:35:49;;;;;;;12.03;10.70;;;28.00;65.40;;;;;;5024579;28;20422;-72
2023/08/20 10:38:17;;;;;;;12.67;10.33;;;28.00;65.40;;;;;;5036254;28;20460;-72
2023/08/20 10:40:54;;;;;;;10.93;9.93;;;28.00;65.50;;;;;;5042779;28;20533;-72
2023/08/20 10:43:27;;;;;;;11.70;10.50;;;28.00;65.50;;;;;;5039085;28;20517;-72
2023/08/20 10:46:17;;;;;;;10.77;9.70;;;28.00;65.60;;;;;;5043215;28;20425;-72
2023/08/20 10:48:49;;;;;;;11.53;10.40;;;28.00;65.60;;;;;;5041582;28;20536;-72
2023/08/20 10:51:15;;;;;;;11.30;10.10;;;28.00;65.60;;;;;;5043502;28;20516;-73
2023/08/20 10:54:03;;;;;;;11.87;10.50;;;28.00;65.70;;;;;;5026233;28;21062;-73
2023/08/20 10:56:45;;;;;;;12.10;9.60;;;28.00;65.60;;;;;;5053217;28;20464;-72
2023/08/20 10:59:20;;;;;;;15.63;10.57;;;28.00;65.60;;;;;;5035576;28;20428;-73
2023/08/20 11:01:51;;;;;;;10.23;9.43;;;28.00;65.60;;;;;;5043361;28;20523;-73
2023/08/20 11:04:18;;;;;;;12.03;10.27;;;28.00;65.60;;;;;;5053209;28;20400;-73
2023/08/20 11:06:45;;;;;;;10.60;9.50;;;28.00;65.60;;;;;;5053206;28;20409;-70
2023/08/20 11:09:11;;;;;;;11.43;10.27;;;28.00;65.60;;;;;;5053030;28;20420;-71
2023/08/20 11:11:40;;;;;;;11.80;10.70;;;28.00;65.60;;;;;;5052672;28;20830;-73
2023/08/20 11:14:07;;;;;;;12.40;10.97;;;28.00;65.60;;;;;;5035128;28;20240;-73
2023/08/20 11:16:36;;;;;;;11.20;10.30;;;28.00;65.60;;;;;;5034905;28;20449;-71
2023/08/20 11:19:07;;;;;;;11.17;10.07;;;28.00;65.60;;;;;;5053101;28;20425;-72
2023/08/20 11:21:33;;;;;;;13.07;10.30;;;28.00;65.60;;;;;;5052796;28;20979;-73
2023/08/20 11:24:00;;;;;;;11.47;9.53;;;28.00;65.60;;;;;;5052787;28;20422;-72
2023/08/20 11:26:25;;;;;;;10.90;9.90;;;28.00;65.60;;;;;;5052685;28;20421;-72
2023/08/20 11:28:51;;;;;;;10.73;9.43;;;28.00;65.50;;;;;;5052575;28;20425;-71
2023/08/20 11:31:17;;;;;;;10.57;9.23;;;28.00;65.60;;;;;;5052382;28;20272;-73
2023/08/20 11:33:42;;;;;;;10.83;9.70;;;28.00;65.50;;;;;;5052529;28;20178;-73
2023/08/20 11:36:08;;;;;;;10.77;9.80;;;28.00;65.60;;;;;;5052584;28;20205;-72
2023/08/20 11:38:34;;;;;;;13.70;10.57;;;28.00;65.60;;;;;;5052457;28;20249;-72
2023/08/20 11:40:59;;;;;;;12.20;10.20;;;28.00;65.50;;;;;;5052369;28;20675;-73
2023/08/20 11:43:27;;;;;;;11.23;10.13;;;28.00;65.50;;;;;;5052416;28;20181;-72
2023/08/20 11:45:54;;;;;;;10.20;9.37;;;28.00;65.50;;;;;;5049573;28;20203;-73
2023/08/20 11:48:23;;;;;;;9.83;8.93;;;28.00;65.60;;;;;;5022226;28;20425;-72
2023/08/20 11:50:50;;;;;;;10.40;9.40;;;28.00;65.50;;;;;;5046284;28;20437;-73
2023/08/20 11:53:23;;;;;;;9.80;9.00;;;28.10;65.60;;;;;;5052602;28;20913;-74
2023/08/20 11:55:49;;;;;;;10.50;9.50;;;28.00;65.50;;;;;;5052399;28;20397;-73
2023/08/20 11:58:15;;;;;;;10.03;9.13;;;28.00;65.50;;;;;;5047123;28;20441;-73
2023/08/20 12:00:51;;;;;;;10.17;8.90;;;28.10;65.70;;;;;;5030724;28;20199;-73
2023/08/20 12:03:19;;;;;;;11.90;9.50;;;28.10;65.60;;;;;;5034596;28;20179;-73
2023/08/20 12:05:44;;;;;;;11.20;10.10;;;28.10;65.60;;;;;;5052665;28;20463;-73
2023/08/20 12:08:16;;;;;;;11.10;9.87;;;28.10;65.60;;;;;;5034605;28;20457;-72
2023/08/20 12:10:46;;;;;;;10.10;9.20;;;28.10;65.70;;;;;;5033940;28;20222;-73
2023/08/20 12:13:12;;;;;;;10.83;9.83;;;28.10;65.60;;;;;;5052082;28;20483;-73
2023/08/20 12:15:38;;;;;;;10.60;9.67;;;28.10;65.60;;;;;;5034362;28;20433;-72
2023/08/20 12:18:05;;;;;;;10.47;9.67;;;28.10;65.60;;;;;;5051995;28;20248;-73
2023/08/20 12:20:33;;;;;;;9.53;8.73;;;28.10;65.60;;;;;;5033862;28;20199;-73
2023/08/20 12:23:04;;;;;;;10.30;9.37;;;28.10;65.60;;;;;;5052069;28;20513;-73
2023/08/20 12:25:32;;;;;;;10.43;9.50;;;28.10;65.60;;;;;;5051999;28;20417;-73
2023/08/20 12:27:58;;;;;;;10.57;9.60;;;28.10;65.60;;;;;;5051886;28;20414;-73
2023/08/20 12:30:23;;;;;;;9.27;8.57;;;28.10;65.60;;;;;;5033816;28;20824;-73
2023/08/20 12:32:49;;;;;;;9.43;8.50;;;28.10;65.60;;;;;;5052028;28;20179;-73
2023/08/20 12:35:14;;;;;;;10.50;9.60;;;28.10;65.60;;;;;;5051832;28;20186;-73
2023/08/20 12:37:40;;;;;;;10.47;9.60;;;28.10;65.50;;;;;;5051791;28;20209;-73
2023/08/20 12:40:10;;;;;;;10.50;9.57;;;28.10;65.60;;;;;;5051725;28;20195;-72
2023/08/20 12:42:41;;;;;;;10.53;9.53;;;28.10;65.60;;;;;;5052943;28;20186;-72
2023/08/20 12:45:07;;;;;;;11.30;10.30;;;28.10;65.60;;;;;;5056108;28;20414;-73